sensor_id;sensor_type;location;lat;lon;timestamp;P1;durP1;ratioP1;P2;durP2;ratioP2
67776;SDS011;54576;52.020;5.536;2022-09-30T00:01:45;17.52;;;4.85;;
67776;SDS011;54576;52.020;5.536;2022-09-30T00:04:13;7.78;;;4.82;;
67776;SDS011;54576;52.020;5.536;2022-09-30T00:06:51;14.23;;;4.85;;
67776;SDS011;54576;52.020;5.536;2022-09-30T00:09:19;7.18;;;4.85;;
67776;SDS011;54576;52.020;5.536;2022-09-30T00:11:45;5.28;;;4.78;;
67776;SDS011;54576;52.020;5.536;2022-09-30T00:14:13;5.82;;;4.88;;
67776;SDS011;54576;52.020;5.536;2022-09-30T00:16:43;8.43;;;4.88;;
67776;SDS011;54576;52.020;5.536;2022-09-30T00:19:09;10.63;;;4.90;;
67776;SDS011;54576;52.020;5.536;2022-09-30T00:21:35;5.85;;;4.57;;
67776;SDS011;54576;52.020;5.536;2022-09-30T00:24:01;8.23;;;4.90;;
67776;SDS011;54576;52.020;5.536;2022-09-30T00:26:28;6.65;;;4.93;;
67776;SDS011;54576;52.020;5.536;2022-09-30T00:28:55;8.18;;;4.68;;
67776;SDS011;54576;52.020;5.536;2022-09-30T00:31:40;14.38;;;4.88;;
67776;SDS011;54576;52.020;5.536;2022-09-30T00:34:06;6.07;;;4.72;;
67776;SDS011;54576;52.020;5.536;2022-09-30T00:36:40;7.07;;;4.53;;
67776;SDS011;54576;52.020;5.536;2022-09-30T00:39:08;7.95;;;4.90;;
67776;SDS011;54576;52.020;5.536;2022-09-30T00:41:36;9.23;;;4.95;;
67776;SDS011;54576;52.020;5.536;2022-09-30T00:44:37;5.78;;;4.82;;
67776;SDS011;54576;52.020;5.536;2022-09-30T00:49:52;6.65;;;4.85;;
67776;SDS011;54576;52.020;5.536;2022-09-30T00:52:22;5.22;;;4.57;;
67776;SDS011;54576;52.020;5.536;2022-09-30T00:54:48;9.43;;;5.35;;
67776;SDS011;54576;52.020;5.536;2022-09-30T00:57:15;9.35;;;5.10;;
67776;SDS011;54576;52.020;5.536;2022-09-30T00:59:44;5.18;;;4.68;;
67776;SDS011;54576;52.020;5.536;2022-09-30T01:02:13;13.00;;;4.13;;
67776;SDS011;54576;52.020;5.536;2022-09-30T01:04:39;6.28;;;4.43;;
67776;SDS011;54576;52.020;5.536;2022-09-30T01:07:07;8.50;;;4.47;;
67776;SDS011;54576;52.020;5.536;2022-09-30T01:09:35;7.97;;;4.90;;
67776;SDS011;54576;52.020;5.536;2022-09-30T01:12:15;8.15;;;4.35;;
67776;SDS011;54576;52.020;5.536;2022-09-30T01:14:44;5.90;;;4.43;;
67776;SDS011;54576;52.020;5.536;2022-09-30T01:20:34;4.85;;;4.40;;
67776;SDS011;54576;52.020;5.536;2022-09-30T01:28:48;5.28;;;4.70;;
67776;SDS011;54576;52.020;5.536;2022-09-30T01:31:38;7.20;;;4.55;;
67776;SDS011;54576;52.020;5.536;2022-09-30T01:37:07;5.45;;;4.80;;
67776;SDS011;54576;52.020;5.536;2022-09-30T01:45:11;5.13;;;3.92;;
67776;SDS011;54576;52.020;5.536;2022-09-30T01:50:21;9.68;;;3.92;;
67776;SDS011;54576;52.020;5.536;2022-09-30T01:56:00;5.90;;;4.40;;
67776;SDS011;54576;52.020;5.536;2022-09-30T02:04:08;8.60;;;3.58;;
67776;SDS011;54576;52.020;5.536;2022-09-30T02:06:40;3.50;;;3.30;;
67776;SDS011;54576;52.020;5.536;2022-09-30T02:09:12;7.88;;;4.03;;
67776;SDS011;54576;52.020;5.536;2022-09-30T02:11:42;3.67;;;3.25;;
67776;SDS011;54576;52.020;5.536;2022-09-30T02:22:37;5.25;;;3.72;;
67776;SDS011;54576;52.020;5.536;2022-09-30T02:25:11;6.05;;;3.33;;
67776;SDS011;54576;52.020;5.536;2022-09-30T02:27:51;5.00;;;3.55;;
67776;SDS011;54576;52.020;5.536;2022-09-30T02:30:21;11.40;;;3.70;;
67776;SDS011;54576;52.020;5.536;2022-09-30T02:35:34;12.48;;;6.03;;
67776;SDS011;54576;52.020;5.536;2022-09-30T02:38:04;7.13;;;3.85;;
67776;SDS011;54576;52.020;5.536;2022-09-30T02:40:36;4.03;;;3.13;;
67776;SDS011;54576;52.020;5.536;2022-09-30T02:43:06;5.55;;;4.25;;
67776;SDS011;54576;52.020;5.536;2022-09-30T02:45:38;6.78;;;3.90;;
67776;SDS011;54576;52.020;5.536;2022-09-30T02:51:25;7.43;;;3.50;;
67776;SDS011;54576;52.020;5.536;2022-09-30T02:57:19;5.00;;;3.97;;
67776;SDS011;54576;52.020;5.536;2022-09-30T03:00:08;3.97;;;3.58;;
67776;SDS011;54576;52.020;5.536;2022-09-30T03:02:34;6.57;;;3.75;;
67776;SDS011;54576;52.020;5.536;2022-09-30T03:05:00;6.03;;;3.58;;
67776;SDS011;54576;52.020;5.536;2022-09-30T03:07:26;6.50;;;3.97;;
67776;SDS011;54576;52.020;5.536;2022-09-30T03:09:55;8.93;;;4.00;;
67776;SDS011;54576;52.020;5.536;2022-09-30T03:12:33;4.60;;;4.20;;
67776;SDS011;54576;52.020;5.536;2022-09-30T03:23:44;7.05;;;3.38;;
67776;SDS011;54576;52.020;5.536;2022-09-30T03:35:07;6.15;;;3.80;;
67776;SDS011;54576;52.020;5.536;2022-09-30T03:37:45;4.10;;;3.70;;
67776;SDS011;54576;52.020;5.536;2022-09-30T03:43:34;6.60;;;3.80;;
67776;SDS011;54576;52.020;5.536;2022-09-30T03:48:54;4.22;;;3.42;;
67776;SDS011;54576;52.020;5.536;2022-09-30T03:51:24;6.18;;;3.47;;
67776;SDS011;54576;52.020;5.536;2022-09-30T03:53:50;13.65;;;4.60;;
67776;SDS011;54576;52.020;5.536;2022-09-30T03:56:28;5.35;;;4.20;;
67776;SDS011;54576;52.020;5.536;2022-09-30T03:58:55;10.35;;;4.57;;
67776;SDS011;54576;52.020;5.536;2022-09-30T04:01:22;7.07;;;4.38;;
67776;SDS011;54576;52.020;5.536;2022-09-30T04:03:49;4.20;;;3.72;;
67776;SDS011;54576;52.020;5.536;2022-09-30T04:06:16;5.80;;;3.80;;
67776;SDS011;54576;52.020;5.536;2022-09-30T04:08:42;4.65;;;3.95;;
67776;SDS011;54576;52.020;5.536;2022-09-30T04:11:08;4.57;;;3.70;;
67776;SDS011;54576;52.020;5.536;2022-09-30T04:13:36;9.18;;;4.00;;
67776;SDS011;54576;52.020;5.536;2022-09-30T04:16:03;4.95;;;4.00;;
67776;SDS011;54576;52.020;5.536;2022-09-30T04:18:30;5.47;;;4.25;;
67776;SDS011;54576;52.020;5.536;2022-09-30T04:20:56;4.68;;;3.70;;
67776;SDS011;54576;52.020;5.536;2022-09-30T04:23:23;10.52;;;3.83;;
67776;SDS011;54576;52.020;5.536;2022-09-30T04:25:52;4.75;;;4.05;;
67776;SDS011;54576;52.020;5.536;2022-09-30T04:28:19;6.40;;;4.10;;
67776;SDS011;54576;52.020;5.536;2022-09-30T04:30:45;6.90;;;4.43;;
67776;SDS011;54576;52.020;5.536;2022-09-30T04:33:11;6.05;;;4.35;;
67776;SDS011;54576;52.020;5.536;2022-09-30T04:35:37;4.97;;;3.92;;
67776;SDS011;54576;52.020;5.536;2022-09-30T04:38:03;7.28;;;4.65;;
67776;SDS011;54576;52.020;5.536;2022-09-30T04:40:31;8.55;;;4.15;;
67776;SDS011;54576;52.020;5.536;2022-09-30T04:43:00;11.27;;;4.65;;
67776;SDS011;54576;52.020;5.536;2022-09-30T04:45:26;6.90;;;4.53;;
67776;SDS011;54576;52.020;5.536;2022-09-30T04:47:51;11.70;;;4.40;;
67776;SDS011;54576;52.020;5.536;2022-09-30T04:50:17;7.38;;;5.05;;
67776;SDS011;54576;52.020;5.536;2022-09-30T04:52:44;6.38;;;4.28;;
67776;SDS011;54576;52.020;5.536;2022-09-30T04:55:10;21.27;;;5.65;;
67776;SDS011;54576;52.020;5.536;2022-09-30T04:57:36;9.57;;;4.90;;
67776;SDS011;54576;52.020;5.536;2022-09-30T05:00:01;6.63;;;4.95;;
67776;SDS011;54576;52.020;5.536;2022-09-30T05:02:34;5.30;;;4.70;;
67776;SDS011;54576;52.020;5.536;2022-09-30T05:05:00;7.40;;;4.40;;
67776;SDS011;54576;52.020;5.536;2022-09-30T05:07:27;10.93;;;4.55;;
67776;SDS011;54576;52.020;5.536;2022-09-30T05:09:54;5.53;;;4.93;;
67776;SDS011;54576;52.020;5.536;2022-09-30T05:12:20;10.38;;;4.85;;
67776;SDS011;54576;52.020;5.536;2022-09-30T05:14:46;5.30;;;4.55;;
67776;SDS011;54576;52.020;5.536;2022-09-30T05:17:11;7.85;;;5.55;;
67776;SDS011;54576;52.020;5.536;2022-09-30T05:19:37;6.25;;;4.82;;
67776;SDS011;54576;52.020;5.536;2022-09-30T05:22:02;4.63;;;4.20;;
67776;SDS011;54576;52.020;5.536;2022-09-30T05:24:28;12.88;;;5.18;;
67776;SDS011;54576;52.020;5.536;2022-09-30T05:26:54;8.38;;;4.95;;
67776;SDS011;54576;52.020;5.536;2022-09-30T05:29:20;10.27;;;4.60;;
67776;SDS011;54576;52.020;5.536;2022-09-30T05:31:46;19.00;;;5.22;;
67776;SDS011;54576;52.020;5.536;2022-09-30T05:34:11;6.72;;;5.55;;
67776;SDS011;54576;52.020;5.536;2022-09-30T05:36:40;9.10;;;5.32;;
67776;SDS011;54576;52.020;5.536;2022-09-30T05:39:09;11.70;;;5.32;;
67776;SDS011;54576;52.020;5.536;2022-09-30T05:41:36;5.70;;;4.80;;
67776;SDS011;54576;52.020;5.536;2022-09-30T05:44:02;8.35;;;4.95;;
67776;SDS011;54576;52.020;5.536;2022-09-30T05:46:29;8.57;;;5.32;;
67776;SDS011;54576;52.020;5.536;2022-09-30T05:48:55;14.25;;;6.15;;
67776;SDS011;54576;52.020;5.536;2022-09-30T05:51:21;14.50;;;5.22;;
67776;SDS011;54576;52.020;5.536;2022-09-30T05:53:46;23.38;;;5.07;;
67776;SDS011;54576;52.020;5.536;2022-09-30T05:56:12;14.52;;;5.32;;
67776;SDS011;54576;52.020;5.536;2022-09-30T05:58:38;7.35;;;4.93;;
67776;SDS011;54576;52.020;5.536;2022-09-30T06:01:08;14.93;;;6.20;;
67776;SDS011;54576;52.020;5.536;2022-09-30T06:03:35;10.60;;;6.32;;
67776;SDS011;54576;52.020;5.536;2022-09-30T06:06:02;12.45;;;6.18;;
67776;SDS011;54576;52.020;5.536;2022-09-30T06:08:28;13.98;;;6.63;;
67776;SDS011;54576;52.020;5.536;2022-09-30T06:10:55;10.30;;;6.78;;
67776;SDS011;54576;52.020;5.536;2022-09-30T06:13:23;13.17;;;5.67;;
67776;SDS011;54576;52.020;5.536;2022-09-30T06:15:56;12.63;;;7.38;;
67776;SDS011;54576;52.020;5.536;2022-09-30T06:18:23;7.63;;;6.30;;
67776;SDS011;54576;52.020;5.536;2022-09-30T06:20:50;10.80;;;6.28;;
67776;SDS011;54576;52.020;5.536;2022-09-30T06:23:16;19.55;;;6.95;;
67776;SDS011;54576;52.020;5.536;2022-09-30T06:25:42;14.82;;;7.68;;
67776;SDS011;54576;52.020;5.536;2022-09-30T06:28:08;22.63;;;8.55;;
67776;SDS011;54576;52.020;5.536;2022-09-30T06:30:34;15.75;;;7.97;;
67776;SDS011;54576;52.020;5.536;2022-09-30T06:32:59;16.10;;;8.15;;
67776;SDS011;54576;52.020;5.536;2022-09-30T06:35:25;18.58;;;7.63;;
67776;SDS011;54576;52.020;5.536;2022-09-30T06:37:52;15.30;;;8.07;;
67776;SDS011;54576;52.020;5.536;2022-09-30T06:40:18;26.30;;;9.15;;
67776;SDS011;54576;52.020;5.536;2022-09-30T06:42:47;17.17;;;8.75;;
67776;SDS011;54576;52.020;5.536;2022-09-30T06:45:14;24.02;;;9.25;;
67776;SDS011;54576;52.020;5.536;2022-09-30T06:47:40;15.40;;;9.50;;
67776;SDS011;54576;52.020;5.536;2022-09-30T06:50:07;24.67;;;9.57;;
67776;SDS011;54576;52.020;5.536;2022-09-30T06:52:33;19.40;;;8.68;;
67776;SDS011;54576;52.020;5.536;2022-09-30T06:54:58;19.83;;;8.95;;
67776;SDS011;54576;52.020;5.536;2022-09-30T06:57:24;19.55;;;8.10;;
67776;SDS011;54576;52.020;5.536;2022-09-30T06:59:51;13.00;;;8.10;;
67776;SDS011;54576;52.020;5.536;2022-09-30T07:02:18;16.38;;;8.40;;
67776;SDS011;54576;52.020;5.536;2022-09-30T07:04:44;15.55;;;8.73;;
67776;SDS011;54576;52.020;5.536;2022-09-30T07:07:10;18.10;;;9.88;;
67776;SDS011;54576;52.020;5.536;2022-09-30T07:09:36;13.15;;;9.30;;
67776;SDS011;54576;52.020;5.536;2022-09-30T07:12:02;20.90;;;11.85;;
67776;SDS011;54576;52.020;5.536;2022-09-30T07:14:30;25.75;;;16.20;;
67776;SDS011;54576;52.020;5.536;2022-09-30T07:16:56;36.30;;;12.55;;
67776;SDS011;54576;52.020;5.536;2022-09-30T07:19:22;27.13;;;12.20;;
67776;SDS011;54576;52.020;5.536;2022-09-30T07:21:48;34.83;;;17.70;;
67776;SDS011;54576;52.020;5.536;2022-09-30T07:24:14;29.40;;;12.98;;
67776;SDS011;54576;52.020;5.536;2022-09-30T07:26:41;25.17;;;13.13;;
67776;SDS011;54576;52.020;5.536;2022-09-30T07:29:09;19.73;;;12.57;;
67776;SDS011;54576;52.020;5.536;2022-09-30T07:31:36;23.23;;;15.15;;
67776;SDS011;54576;52.020;5.536;2022-09-30T07:34:03;28.10;;;16.20;;
67776;SDS011;54576;52.020;5.536;2022-09-30T07:36:30;31.27;;;18.02;;
67776;SDS011;54576;52.020;5.536;2022-09-30T07:38:57;27.23;;;17.90;;
67776;SDS011;54576;52.020;5.536;2022-09-30T07:41:24;34.17;;;19.27;;
67776;SDS011;54576;52.020;5.536;2022-09-30T07:43:53;32.95;;;18.23;;
67776;SDS011;54576;52.020;5.536;2022-09-30T07:46:30;31.80;;;19.10;;
67776;SDS011;54576;52.020;5.536;2022-09-30T07:48:57;35.95;;;18.48;;
67776;SDS011;54576;52.020;5.536;2022-09-30T07:51:27;35.67;;;21.52;;
67776;SDS011;54576;52.020;5.536;2022-09-30T07:53:56;34.53;;;19.25;;
67776;SDS011;54576;52.020;5.536;2022-09-30T07:56:24;34.08;;;20.20;;
67776;SDS011;54576;52.020;5.536;2022-09-30T07:58:54;37.72;;;23.30;;
67776;SDS011;54576;52.020;5.536;2022-09-30T08:01:21;29.23;;;19.23;;
67776;SDS011;54576;52.020;5.536;2022-09-30T08:03:51;25.45;;;18.95;;
67776;SDS011;54576;52.020;5.536;2022-09-30T08:06:19;27.77;;;19.52;;
67776;SDS011;54576;52.020;5.536;2022-09-30T08:08:46;27.48;;;18.73;;
67776;SDS011;54576;52.020;5.536;2022-09-30T08:11:12;25.55;;;17.08;;
67776;SDS011;54576;52.020;5.536;2022-09-30T08:13:38;25.27;;;16.42;;
67776;SDS011;54576;52.020;5.536;2022-09-30T08:16:05;26.88;;;17.50;;
67776;SDS011;54576;52.020;5.536;2022-09-30T08:18:31;29.15;;;17.58;;
67776;SDS011;54576;52.020;5.536;2022-09-30T08:21:01;27.48;;;17.48;;
67776;SDS011;54576;52.020;5.536;2022-09-30T08:23:28;24.15;;;16.77;;
67776;SDS011;54576;52.020;5.536;2022-09-30T08:25:59;19.13;;;15.07;;
67776;SDS011;54576;52.020;5.536;2022-09-30T08:28:26;22.00;;;15.68;;
67776;SDS011;54576;52.020;5.536;2022-09-30T08:30:55;31.52;;;15.13;;
67776;SDS011;54576;52.020;5.536;2022-09-30T08:33:26;28.88;;;15.82;;
67776;SDS011;54576;52.020;5.536;2022-09-30T08:35:52;20.60;;;15.07;;
67776;SDS011;54576;52.020;5.536;2022-09-30T08:38:17;20.40;;;14.48;;
67776;SDS011;54576;52.020;5.536;2022-09-30T08:40:52;29.58;;;17.48;;
67776;SDS011;54576;52.020;5.536;2022-09-30T08:51:52;21.40;;;13.32;;
67776;SDS011;54576;52.020;5.536;2022-09-30T08:54:21;31.15;;;19.33;;
67776;SDS011;54576;52.020;5.536;2022-09-30T08:56:49;16.65;;;13.95;;
67776;SDS011;54576;52.020;5.536;2022-09-30T09:05:00;17.80;;;12.35;;
67776;SDS011;54576;52.020;5.536;2022-09-30T09:07:42;19.90;;;13.85;;
67776;SDS011;54576;52.020;5.536;2022-09-30T09:12:57;20.02;;;12.38;;
67776;SDS011;54576;52.020;5.536;2022-09-30T09:15:49;17.80;;;13.88;;
67776;SDS011;54576;52.020;5.536;2022-09-30T09:18:38;17.30;;;12.88;;
67776;SDS011;54576;52.020;5.536;2022-09-30T09:21:22;21.73;;;13.68;;
67776;SDS011;54576;52.020;5.536;2022-09-30T09:23:52;19.45;;;13.48;;
67776;SDS011;54576;52.020;5.536;2022-09-30T09:26:20;22.73;;;12.82;;
67776;SDS011;54576;52.020;5.536;2022-09-30T09:28:58;17.33;;;12.82;;
67776;SDS011;54576;52.020;5.536;2022-09-30T09:31:35;19.80;;;14.02;;
67776;SDS011;54576;52.020;5.536;2022-09-30T09:34:09;19.33;;;13.93;;
67776;SDS011;54576;52.020;5.536;2022-09-30T09:44:55;17.08;;;12.07;;
67776;SDS011;54576;52.020;5.536;2022-09-30T09:47:27;18.85;;;12.45;;
67776;SDS011;54576;52.020;5.536;2022-09-30T09:52:39;14.38;;;11.18;;
67776;SDS011;54576;52.020;5.536;2022-09-30T09:55:21;22.38;;;11.63;;
67776;SDS011;54576;52.020;5.536;2022-09-30T09:57:48;17.10;;;11.57;;
67776;SDS011;54576;52.020;5.536;2022-09-30T10:00:29;13.60;;;11.13;;
67776;SDS011;54576;52.020;5.536;2022-09-30T10:03:16;14.20;;;10.30;;
67776;SDS011;54576;52.020;5.536;2022-09-30T10:05:57;16.33;;;10.90;;
67776;SDS011;54576;52.020;5.536;2022-09-30T10:08:34;17.38;;;10.55;;
67776;SDS011;54576;52.020;5.536;2022-09-30T10:11:05;19.25;;;10.88;;
67776;SDS011;54576;52.020;5.536;2022-09-30T10:13:42;11.48;;;9.40;;
67776;SDS011;54576;52.020;5.536;2022-09-30T10:18:55;14.68;;;9.57;;
67776;SDS011;54576;52.020;5.536;2022-09-30T10:21:23;15.48;;;10.65;;
67776;SDS011;54576;52.020;5.536;2022-09-30T10:26:21;12.13;;;9.18;;
67776;SDS011;54576;52.020;5.536;2022-09-30T10:28:59;13.70;;;9.43;;
67776;SDS011;54576;52.020;5.536;2022-09-30T10:31:36;18.95;;;9.25;;
67776;SDS011;54576;52.020;5.536;2022-09-30T10:36:46;9.82;;;7.78;;
67776;SDS011;54576;52.020;5.536;2022-09-30T10:41:49;15.35;;;7.70;;
67776;SDS011;54576;52.020;5.536;2022-09-30T10:44:17;10.25;;;7.88;;
67776;SDS011;54576;52.020;5.536;2022-09-30T10:46:46;13.27;;;7.82;;
67776;SDS011;54576;52.020;5.536;2022-09-30T10:49:29;18.83;;;8.07;;
67776;SDS011;54576;52.020;5.536;2022-09-30T10:51:59;15.02;;;7.25;;
67776;SDS011;54576;52.020;5.536;2022-09-30T10:57:04;8.13;;;7.15;;
67776;SDS011;54576;52.020;5.536;2022-09-30T10:59:38;13.32;;;7.85;;
67776;SDS011;54576;52.020;5.536;2022-09-30T11:02:13;8.75;;;6.28;;
67776;SDS011;54576;52.020;5.536;2022-09-30T11:07:44;8.02;;;5.13;;
67776;SDS011;54576;52.020;5.536;2022-09-30T11:10:39;7.10;;;5.20;;
67776;SDS011;54576;52.020;5.536;2022-09-30T11:13:43;5.80;;;4.22;;
67776;SDS011;54576;52.020;5.536;2022-09-30T11:19:23;5.07;;;4.55;;
67776;SDS011;54576;52.020;5.536;2022-09-30T11:24:41;5.68;;;3.88;;
67776;SDS011;54576;52.020;5.536;2022-09-30T11:30:13;21.92;;;4.43;;
67776;SDS011;54576;52.020;5.536;2022-09-30T11:33:01;6.60;;;3.83;;
67776;SDS011;54576;52.020;5.536;2022-09-30T11:36:13;7.93;;;3.70;;
67776;SDS011;54576;52.020;5.536;2022-09-30T11:45:18;8.60;;;4.25;;
67776;SDS011;54576;52.020;5.536;2022-09-30T11:51:17;6.35;;;4.28;;
67776;SDS011;54576;52.020;5.536;2022-09-30T11:54:00;6.85;;;4.30;;
67776;SDS011;54576;52.020;5.536;2022-09-30T11:56:54;4.05;;;3.50;;
67776;SDS011;54576;52.020;5.536;2022-09-30T12:02:25;8.20;;;3.13;;
67776;SDS011;54576;52.020;5.536;2022-09-30T12:04:59;5.40;;;3.00;;
67776;SDS011;54576;52.020;5.536;2022-09-30T12:10:04;4.72;;;2.70;;
67776;SDS011;54576;52.020;5.536;2022-09-30T12:12:40;5.13;;;2.63;;
67776;SDS011;54576;52.020;5.536;2022-09-30T12:15:13;2.17;;;1.50;;
67776;SDS011;54576;52.020;5.536;2022-09-30T12:17:52;10.70;;;2.13;;
67776;SDS011;54576;52.020;5.536;2022-09-30T12:20:21;5.15;;;1.80;;
67776;SDS011;54576;52.020;5.536;2022-09-30T12:25:46;3.33;;;1.33;;
67776;SDS011;54576;52.020;5.536;2022-09-30T12:31:24;3.03;;;0.88;;
67776;SDS011;54576;52.020;5.536;2022-09-30T12:37:08;2.55;;;0.85;;
67776;SDS011;54576;52.020;5.536;2022-09-30T12:39:51;0.52;;;0.52;;
67776;SDS011;54576;52.020;5.536;2022-09-30T12:47:56;6.35;;;1.45;;
67776;SDS011;54576;52.020;5.536;2022-09-30T12:50:27;4.07;;;1.33;;
67776;SDS011;54576;52.020;5.536;2022-09-30T12:52:57;4.50;;;1.40;;
67776;SDS011;54576;52.020;5.536;2022-09-30T12:55:39;1.50;;;1.23;;
67776;SDS011;54576;52.020;5.536;2022-09-30T12:58:12;4.10;;;1.10;;
67776;SDS011;54576;52.020;5.536;2022-09-30T13:00:58;4.50;;;1.27;;
67776;SDS011;54576;52.020;5.536;2022-09-30T13:03:26;4.30;;;1.15;;
67776;SDS011;54576;52.020;5.536;2022-09-30T13:05:53;1.95;;;1.02;;
67776;SDS011;54576;52.020;5.536;2022-09-30T13:08:24;3.45;;;1.30;;
67776;SDS011;54576;52.020;5.536;2022-09-30T13:11:05;1.60;;;1.40;;
67776;SDS011;54576;52.020;5.536;2022-09-30T13:17:21;2.25;;;1.30;;
67776;SDS011;54576;52.020;5.536;2022-09-30T13:19:50;3.10;;;1.42;;
67776;SDS011;54576;52.020;5.536;2022-09-30T13:27:35;10.00;;;1.77;;
67776;SDS011;54576;52.020;5.536;2022-09-30T13:35:33;1.58;;;1.48;;
67776;SDS011;54576;52.020;5.536;2022-09-30T13:40:44;2.65;;;1.83;;
67776;SDS011;54576;52.020;5.536;2022-09-30T13:46:37;2.20;;;2.10;;
67776;SDS011;54576;52.020;5.536;2022-09-30T13:49:00;3.85;;;2.22;;
67776;SDS011;54576;52.020;5.536;2022-09-30T13:51:48;4.80;;;2.25;;
67776;SDS011;54576;52.020;5.536;2022-09-30T13:56:55;9.48;;;2.72;;
67776;SDS011;54576;52.020;5.536;2022-09-30T13:59:35;7.55;;;2.30;;
67776;SDS011;54576;52.020;5.536;2022-09-30T14:02:30;3.13;;;2.20;;
67776;SDS011;54576;52.020;5.536;2022-09-30T14:05:31;2.88;;;2.20;;
67776;SDS011;54576;52.020;5.536;2022-09-30T14:13:44;9.77;;;2.70;;
67776;SDS011;54576;52.020;5.536;2022-09-30T14:19:18;6.95;;;2.80;;
67776;SDS011;54576;52.020;5.536;2022-09-30T14:24:15;9.10;;;2.30;;
67776;SDS011;54576;52.020;5.536;2022-09-30T14:29:38;3.90;;;2.50;;
67776;SDS011;54576;52.020;5.536;2022-09-30T14:32:26;4.75;;;2.33;;
67776;SDS011;54576;52.020;5.536;2022-09-30T14:40:24;4.18;;;2.30;;
67776;SDS011;54576;52.020;5.536;2022-09-30T14:43:02;2.30;;;2.10;;
67776;SDS011;54576;52.020;5.536;2022-09-30T14:45:31;3.78;;;2.03;;
67776;SDS011;54576;52.020;5.536;2022-09-30T14:48:01;9.20;;;2.13;;
67776;SDS011;54576;52.020;5.536;2022-09-30T14:50:35;5.93;;;2.20;;
67776;SDS011;54576;52.020;5.536;2022-09-30T14:56:26;4.70;;;2.17;;
67776;SDS011;54576;52.020;5.536;2022-09-30T14:58:52;2.35;;;1.65;;
67776;SDS011;54576;52.020;5.536;2022-09-30T15:01:21;2.65;;;1.70;;
67776;SDS011;54576;52.020;5.536;2022-09-30T15:03:48;2.42;;;2.17;;
67776;SDS011;54576;52.020;5.536;2022-09-30T15:06:18;3.28;;;1.90;;
67776;SDS011;54576;52.020;5.536;2022-09-30T15:08:46;9.45;;;2.25;;
67776;SDS011;54576;52.020;5.536;2022-09-30T15:11:17;8.07;;;2.50;;
67776;SDS011;54576;52.020;5.536;2022-09-30T15:13:45;2.20;;;1.80;;
67776;SDS011;54576;52.020;5.536;2022-09-30T15:16:47;4.88;;;1.92;;
67776;SDS011;54576;52.020;5.536;2022-09-30T15:19:19;5.80;;;2.20;;
67776;SDS011;54576;52.020;5.536;2022-09-30T15:21:47;5.78;;;2.10;;
67776;SDS011;54576;52.020;5.536;2022-09-30T15:24:16;6.75;;;2.13;;
67776;SDS011;54576;52.020;5.536;2022-09-30T15:26:44;7.22;;;2.10;;
67776;SDS011;54576;52.020;5.536;2022-09-30T15:29:13;3.50;;;2.05;;
67776;SDS011;54576;52.020;5.536;2022-09-30T15:31:42;5.05;;;2.50;;
67776;SDS011;54576;52.020;5.536;2022-09-30T15:34:19;4.93;;;2.42;;
67776;SDS011;54576;52.020;5.536;2022-09-30T15:36:46;5.25;;;2.42;;
67776;SDS011;54576;52.020;5.536;2022-09-30T15:39:21;5.10;;;2.25;;
67776;SDS011;54576;52.020;5.536;2022-09-30T15:41:49;9.40;;;2.08;;
67776;SDS011;54576;52.020;5.536;2022-09-30T15:44:27;12.40;;;2.38;;
67776;SDS011;54576;52.020;5.536;2022-09-30T15:47:02;5.50;;;2.45;;
67776;SDS011;54576;52.020;5.536;2022-09-30T15:54:55;4.00;;;2.08;;
67776;SDS011;54576;52.020;5.536;2022-09-30T15:57:43;5.68;;;2.65;;
67776;SDS011;54576;52.020;5.536;2022-09-30T16:00:26;5.32;;;2.83;;
67776;SDS011;54576;52.020;5.536;2022-09-30T16:03:13;5.72;;;2.67;;
67776;SDS011;54576;52.020;5.536;2022-09-30T16:06:03;6.05;;;2.13;;
67776;SDS011;54576;52.020;5.536;2022-09-30T16:08:37;5.72;;;2.35;;
67776;SDS011;54576;52.020;5.536;2022-09-30T16:11:08;3.50;;;2.47;;
67776;SDS011;54576;52.020;5.536;2022-09-30T16:13:46;8.80;;;2.50;;
67776;SDS011;54576;52.020;5.536;2022-09-30T16:16:17;4.18;;;2.25;;
67776;SDS011;54576;52.020;5.536;2022-09-30T16:18:45;8.15;;;2.58;;
67776;SDS011;54576;52.020;5.536;2022-09-30T16:21:29;4.03;;;2.22;;
67776;SDS011;54576;52.020;5.536;2022-09-30T16:26:53;2.67;;;2.40;;
67776;SDS011;54576;52.020;5.536;2022-09-30T16:29:20;5.07;;;2.15;;
67776;SDS011;54576;52.020;5.536;2022-09-30T16:31:47;5.82;;;2.10;;
67776;SDS011;54576;52.020;5.536;2022-09-30T16:34:20;6.72;;;2.65;;
67776;SDS011;54576;52.020;5.536;2022-09-30T16:36:52;11.02;;;2.85;;
67776;SDS011;54576;52.020;5.536;2022-09-30T16:39:19;9.65;;;2.35;;
67776;SDS011;54576;52.020;5.536;2022-09-30T16:41:45;13.27;;;5.88;;
67776;SDS011;54576;52.020;5.536;2022-09-30T16:44:11;12.00;;;6.07;;
67776;SDS011;54576;52.020;5.536;2022-09-30T16:46:37;9.05;;;4.00;;
67776;SDS011;54576;52.020;5.536;2022-09-30T16:49:14;18.48;;;4.70;;
67776;SDS011;54576;52.020;5.536;2022-09-30T16:51:40;15.93;;;3.80;;
67776;SDS011;54576;52.020;5.536;2022-09-30T16:54:07;5.75;;;2.30;;
67776;SDS011;54576;52.020;5.536;2022-09-30T16:56:33;4.35;;;2.60;;
67776;SDS011;54576;52.020;5.536;2022-09-30T16:58:59;10.93;;;2.83;;
67776;SDS011;54576;52.020;5.536;2022-09-30T17:01:25;3.72;;;1.83;;
67776;SDS011;54576;52.020;5.536;2022-09-30T17:03:51;6.57;;;2.10;;
67776;SDS011;54576;52.020;5.536;2022-09-30T17:06:19;7.22;;;2.65;;
67776;SDS011;54576;52.020;5.536;2022-09-30T17:08:50;3.63;;;2.20;;
67776;SDS011;54576;52.020;5.536;2022-09-30T17:11:17;6.15;;;2.35;;
67776;SDS011;54576;52.020;5.536;2022-09-30T17:13:43;7.90;;;2.88;;
67776;SDS011;54576;52.020;5.536;2022-09-30T17:16:10;4.97;;;2.53;;
67776;SDS011;54576;52.020;5.536;2022-09-30T17:18:36;5.80;;;2.85;;
67776;SDS011;54576;52.020;5.536;2022-09-30T17:21:01;23.40;;;7.50;;
67776;SDS011;54576;52.020;5.536;2022-09-30T17:23:28;12.45;;;4.43;;
67776;SDS011;54576;52.020;5.536;2022-09-30T17:25:53;3.67;;;2.50;;
67776;SDS011;54576;52.020;5.536;2022-09-30T17:28:19;4.90;;;2.72;;
67776;SDS011;54576;52.020;5.536;2022-09-30T17:30:46;5.55;;;2.78;;
67776;SDS011;54576;52.020;5.536;2022-09-30T17:33:13;8.15;;;3.00;;
67776;SDS011;54576;52.020;5.536;2022-09-30T17:35:39;2.92;;;2.20;;
67776;SDS011;54576;52.020;5.536;2022-09-30T17:38:08;8.25;;;2.50;;
67776;SDS011;54576;52.020;5.536;2022-09-30T17:40:35;3.33;;;2.45;;
67776;SDS011;54576;52.020;5.536;2022-09-30T17:43:19;3.17;;;2.22;;
67776;SDS011;54576;52.020;5.536;2022-09-30T17:45:45;4.25;;;2.30;;
67776;SDS011;54576;52.020;5.536;2022-09-30T17:48:12;6.60;;;2.53;;
67776;SDS011;54576;52.020;5.536;2022-09-30T17:50:41;9.63;;;2.78;;
67776;SDS011;54576;52.020;5.536;2022-09-30T17:53:09;11.05;;;2.75;;
67776;SDS011;54576;52.020;5.536;2022-09-30T17:55:37;5.73;;;3.47;;
67776;SDS011;54576;52.020;5.536;2022-09-30T17:58:07;5.50;;;3.03;;
67776;SDS011;54576;52.020;5.536;2022-09-30T18:00:33;3.72;;;2.70;;
67776;SDS011;54576;52.020;5.536;2022-09-30T18:02:59;16.42;;;3.92;;
67776;SDS011;54576;52.020;5.536;2022-09-30T18:05:24;9.00;;;3.20;;
67776;SDS011;54576;52.020;5.536;2022-09-30T18:07:51;4.50;;;2.85;;
67776;SDS011;54576;52.020;5.536;2022-09-30T18:10:17;4.97;;;2.78;;
67776;SDS011;54576;52.020;5.536;2022-09-30T18:12:43;7.85;;;2.80;;
67776;SDS011;54576;52.020;5.536;2022-09-30T18:15:11;6.23;;;2.90;;
67776;SDS011;54576;52.020;5.536;2022-09-30T18:17:37;4.18;;;2.60;;
67776;SDS011;54576;52.020;5.536;2022-09-30T18:20:02;3.97;;;3.13;;
67776;SDS011;54576;52.020;5.536;2022-09-30T18:22:28;5.20;;;3.00;;
67776;SDS011;54576;52.020;5.536;2022-09-30T18:24:54;5.35;;;3.42;;
67776;SDS011;54576;52.020;5.536;2022-09-30T18:27:38;8.68;;;4.15;;
67776;SDS011;54576;52.020;5.536;2022-09-30T18:30:04;6.05;;;3.15;;
67776;SDS011;54576;52.020;5.536;2022-09-30T18:32:30;4.28;;;3.08;;